首页
METAR-TAF:

METAR-TAF

机场 :

馬林迪, 肯尼亚

纬度: 03-14S, 经度: 040-06E, 海拔: 20米

当前天气观测

该预报发布于5小时和58分钟前的18:00 UTC
风速13节,风向南转西南
温度 26°C
湿度 84%
气压 1013 hPa
能见度10公里或以上
少量云层高于1900英尺
散云层高于8000英尺

METAR: HKML 261800Z 21013KT 9999 FEW019 SCT080 26/23 Q1013 RESHRA

时间: 02:58 (23:58 UTC)

预报

该预报发布于38分钟前的23:20 UTC
预报有效从27日的 00点(UTC)到 27日的 24点(UTC)
风速5节,风向西南
能见度10公里或以上
散云层高于1800英尺
多云层高于8000英尺
成为
从 27日的 02点(UTC)到 27日的 06点(UTC)
散云层高于1600英尺
多云层高于8000英尺
成为
从 27日的 09点(UTC)到 27日的 12点(UTC)
少量云层高于2300英尺, 积雨云.
散云层高于2400英尺
成为
从 27日的 15点(UTC)到 27日的 18点(UTC)
散云层高于1800英尺

TAF: HKML 262320Z 2700/2724 23005KT 9999 SCT018 BKN080 BECMG 2702/2706 RA SCT016 BKN080 BECMG 2709/2712 FEW023CB SCT024 BECMG 2715/2718 SCT018

超过4000个机场的气象观测和天气预报(METAR&TAF报告)。

可查询的气象台以黄色和红色小点在地图上表示。

将鼠标移到小点上方,可查看气象台名称。

然后点击查看天气观测和预报。

如需切换地图:点击带黑十字的绿色按钮放大地图;点击带横线的绿色按钮缩小地图;或者点击绿色箭头查看邻近地区的地图。


METAR-TAF: